Latest Weather Observations for Low Head

IDT60801

Issued at 12:02 pm EST Saturday 27 May 2017 (issued every 30 minutes, with the page automatically refreshed every 10 minutes)

About weather observations | Map of weather stations | Latest weather observations for TAS | Other Formats
Station Details ID: 091293 Name: LOW HEAD Lat: -41.05 Lon: 146.79 Height: 3.0 m
Data from the previous 72 hours. | See also: Recent months at Low Head
Date/Time
EST
Temp
°C
App
Temp
°C
Dew
Point
°C
Rel
Hum
%
Delta-T
°C
Wind Press
QNH
hPa
Press
MSL
hPa
Rain since
9am
mm
Dir  Spd
km/h
Gust
km/h
Spd
kts
Gust
kts
27/12:00pm 15.7 8.9 13.2 85 1.4 N 41 46 22 25 1012.6 1012.6 -
27/11:30am 15.6 8.4 13.1 85 1.4 N 43 50 23 27 1013.2 1013.2 -
27/11:00am 15.5 8.7 13.0 85 1.4 N 41 52 22 28 1013.6 1013.6 -
27/10:30am 15.5 9.1 13.2 86 1.3 N 39 48 21 26 1014.0 1014.0 -
27/10:00am 15.4 9.0 13.2 87 1.2 N 39 46 21 25 1014.3 1014.3 -
27/09:30am 15.2 9.5 12.9 86 1.3 N 35 41 19 22 1014.6 1014.6 -
27/09:00am 14.9 9.4 12.4 85 1.4 N 33 37 18 20 1014.9 1014.9 -
27/08:30am 14.8 9.3 11.9 83 1.6 N 32 37 17 20 1015.2 1015.2 -
27/08:00am 14.7 9.1 11.5 81 1.7 N 32 37 17 20 1015.2 1015.2 -
27/07:30am 14.9 9.0 10.3 74 2.4 NNW 32 37 17 20 1015.6 1015.6 -
27/07:00am 14.8 8.1 9.8 72 2.6 NW 35 43 19 23 1015.4 1015.4 -
27/06:30am 14.7 8.9 11.5 81 1.7 NNW 33 41 18 22 1015.4 1015.4 -
27/06:00am 14.7 9.6 11.8 83 1.6 N 30 35 16 19 1015.3 1015.3 -
27/05:30am 14.7 9.0 11.8 83 1.6 N 33 37 18 20 1015.5 1015.5 -
27/05:00am 14.6 8.1 11.6 82 1.6 N 37 43 20 23 1015.7 1015.7 -
27/04:32am 14.3 9.3 10.9 80 1.8 NW 28 44 15 24 1015.8 1015.8 -
27/04:30am 14.3 10.4 10.7 79 1.9 NW 22 41 12 22 1015.9 1015.9 -
27/04:00am 14.6 9.8 10.4 76 2.2 N 26 32 14 17 1016.3 1016.3 -
27/03:30am 14.1 9.5 9.5 74 2.4 N 24 28 13 15 1016.7 1016.7 -
27/03:00am 14.0 9.7 9.2 73 2.4 N 22 28 12 15 1017.1 1017.1 -
27/02:30am 13.6 8.7 8.4 71 2.6 N 24 28 13 15 1017.6 1017.6 -
27/02:00am 13.6 8.6 8.0 69 2.8 N 24 30 13 16 1017.7 1017.7 -
27/01:30am 13.6 8.5 7.8 68 2.9 N 24 33 13 18 1017.9 1017.9 -
27/01:00am 13.7 8.9 7.5 66 3.0 NNW 22 26 12 14 1018.2 1018.2 -
27/12:30am 13.7 8.0 6.8 63 3.3 N 26 32 14 17 1018.4 1018.4 -
27/12:00am 14.0 7.8 7.8 66 3.1 N 30 35 16 19 1018.6 1018.6 -
 
Date/Time
EST
Temp
°C
App
Temp
°C
Dew
Point
°C
Rel
Hum
%
Delta-T
°C
Wind Press
QNH
hPa
Press
MSL
hPa
Rain since
9am
mm
Dir  Spd
km/h
Gust
km/h
Spd
kts
Gust
kts
26/11:30pm 14.0 9.1 7.1 63 3.4 N 22 26 12 14 1018.6 1018.6 -
26/11:00pm 13.8 9.5 6.9 63 3.3 NW 19 24 10 13 1018.7 1018.7 -
26/10:30pm 13.7 9.1 6.3 61 3.5 NNW 20 28 11 15 1019.2 1019.2 -
26/10:00pm 13.7 8.3 6.3 61 3.5 NW 24 30 13 16 1019.5 1019.5 -
26/09:30pm 13.7 9.2 6.3 61 3.5 NW 19 26 10 14 1019.4 1019.4 -
26/09:00pm 13.6 8.9 6.2 61 3.5 NNW 20 24 11 13 1019.3 1019.3 -
26/08:30pm 13.5 8.9 6.4 62 3.4 NW 20 26 11 14 1019.4 1019.4 -
26/08:00pm 13.3 8.8 7.1 66 3.0 WNW 20 26 11 14 1019.2 1019.2 -
26/07:30pm 13.3 8.5 7.3 67 2.9 WNW 22 26 12 14 1019.1 1019.1 -
26/07:00pm 13.3 8.6 7.7 69 2.7 WNW 22 26 12 14 1019.1 1019.1 -
26/06:30pm 13.2 8.5 7.9 70 2.6 WNW 22 26 12 14 1018.8 1018.8 -
26/06:00pm 13.1 8.4 7.8 70 2.6 WNW 22 26 12 14 1018.8 1018.8 -
26/05:30pm 13.1 7.2 7.5 69 2.7 WNW 28 30 15 16 1018.6 1018.6 -
26/05:00pm 13.3 7.9 8.0 70 2.6 WNW 26 32 14 17 1018.5 1018.5 -
26/04:30pm 13.7 8.0 8.3 70 2.7 WNW 28 32 15 17 1018.4 1018.4 -
26/04:00pm 13.9 8.6 8.5 70 2.7 WNW 26 32 14 17 1018.5 1018.5 -
26/03:30pm 14.1 8.9 8.7 70 2.7 WNW 26 32 14 17 1018.4 1018.4 -
26/03:00pm 14.3 8.3 8.7 69 2.8 WNW 30 33 16 18 1018.5 1018.5 -
26/02:30pm 14.3 9.1 8.9 70 2.7 WNW 26 32 14 17 1018.5 1018.5 -
26/02:00pm 13.9 8.2 8.5 70 2.7 W 28 32 15 17 1018.7 1018.7 -
26/01:30pm 14.0 9.2 8.8 71 2.6 W 24 28 13 15 1019.0 1019.0 -
26/01:00pm 14.0 8.4 8.6 70 2.7 W 28 33 15 18 1019.3 1019.3 -
26/12:30pm 13.7 7.6 8.3 70 2.7 W 30 35 16 19 1019.3 1019.3 -
26/12:00pm 13.6 7.1 8.2 70 2.7 W 32 39 17 21 1019.6 1019.6 -
26/11:30am 13.2 9.0 8.1 71 2.5 W 20 26 11 14 1019.8 1019.8 -
26/11:00am 12.7 7.3 7.8 72 2.4 WSW 26 28 14 15 1020.2 1020.2 -
26/10:30am 12.8 7.0 7.9 72 2.4 W 28 33 15 18 1020.3 1020.3 -
26/10:00am 12.5 6.6 7.4 71 2.5 W 28 33 15 18 1020.0 1020.0 -
26/09:30am 12.6 6.3 7.3 70 2.6 WSW 30 35 16 19 1019.8 1019.8 -
26/09:00am 12.5 6.2 7.2 70 2.6 WSW 30 37 16 20 1019.5 1019.5 -
26/08:30am 12.4 6.4 6.9 69 2.6 W 28 35 15 19 1019.3 1019.3 -
26/08:00am 11.9 7.7 8.4 79 1.7 WSW 20 28 11 15 1019.0 1019.0 -
26/07:30am 11.4 6.7 7.7 78 1.8 SW 22 28 12 15 1018.7 1018.7 -
26/07:00am 11.8 6.1 8.3 79 1.7 WSW 28 32 15 17 1018.2 1018.2 -
26/06:30am 11.1 6.5 8.3 83 1.4 WSW 22 26 12 14 1017.9 1017.9 -
26/06:00am 11.1 6.5 8.1 82 1.5 WSW 22 26 12 14 1017.5 1017.5 -
26/05:30am 11.8 6.5 8.6 81 1.6 WSW 26 30 14 16 1016.9 1016.9 -
26/05:00am 11.4 5.6 8.1 80 1.6 WSW 28 30 15 16 1016.5 1016.5 -
26/04:30am 11.4 5.6 7.9 79 1.7 WSW 28 30 15 16 1016.3 1016.3 -
26/04:00am 12.0 6.6 8.1 77 1.9 WSW 26 32 14 17 1015.8 1015.8 -
26/03:30am 12.5 6.5 8.6 77 1.9 WSW 30 35 16 19 1015.4 1015.4 -
26/03:00am 12.2 6.9 8.5 78 1.8 WSW 26 30 14 16 1015.3 1015.3 -
26/02:30am 12.6 6.8 8.1 74 2.2 WSW 28 35 15 19 1014.9 1014.9 -
26/02:00am 13.1 6.4 8.2 72 2.4 W 33 39 18 21 1015.0 1015.0 -
26/01:30am 13.2 6.8 8.7 74 2.3 W 32 35 17 19 1014.6 1014.6 -
26/01:00am 13.4 6.1 8.9 74 2.3 W 37 43 20 23 1014.6 1014.6 -
26/12:30am 13.7 7.0 9.7 77 2.1 W 35 43 19 23 1014.6 1014.6 -
26/12:00am 13.8 7.8 10.2 79 1.9 W 32 39 17 21 1014.3 1014.3 -
 
Date/Time
EST
Temp
°C
App
Temp
°C
Dew
Point
°C
Rel
Hum
%
Delta-T
°C
Wind Press
QNH
hPa
Press
MSL
hPa
Rain since
9am
mm
Dir  Spd
km/h
Gust
km/h
Spd
kts
Gust
kts
25/11:30pm 13.8 8.2 10.2 79 1.9 W 30 33 16 18 1014.0 1014.0 -
25/11:00pm 13.9 8.3 10.3 79 1.9 W 30 33 16 18 1013.8 1013.8 -
25/10:30pm 14.2 8.1 10.4 78 2.0 W 33 39 18 21 1013.6 1013.6 -
25/10:00pm 14.3 7.1 10.5 78 2.0 W 39 44 21 24 1013.3 1013.3 -
25/09:30pm 14.5 8.4 11.8 84 1.5 W 35 41 19 22 1012.9 1012.9 -
25/09:00pm 14.4 8.9 12.3 87 1.1 W 33 39 18 21 1012.7 1012.7 -
25/08:30pm 14.4 8.1 12.4 88 1.1 W 37 43 20 23 1012.4 1012.4 -
25/08:00pm 14.4 8.6 12.6 89 1.0 W 35 41 19 22 1012.1 1012.1 -
25/07:30pm 14.6 8.1 13.0 90 0.9 WNW 39 46 21 25 1012.4 1012.4 -
25/07:00pm 14.4 8.0 13.1 92 0.7 WNW 39 46 21 25 1012.2 1012.2 -
25/06:38pm 14.4 7.1 13.3 93 0.6 NW 44 63 24 34 1012.2 1012.2 -
25/06:30pm 14.5 7.3 13.2 92 0.7 NW 43 54 23 29 1012.1 1012.1 -
25/06:00pm 14.2 6.3 12.6 90 0.9 NW 46 56 25 30 1012.4 1012.4 -
25/05:30pm 14.6 6.3 12.6 88 1.1 NW 48 57 26 31 1012.3 1012.3 -
25/05:00pm 14.4 7.3 12.3 87 1.1 NW 41 52 22 28 1012.5 1012.5 -
25/04:30pm 15.2 8.5 12.3 83 1.6 NW 39 48 21 26 1012.6 1012.6 -
25/04:00pm 15.1 9.2 12.4 84 1.5 NW 35 46 19 25 1012.7 1012.7 -
25/03:30pm 14.8 8.0 12.1 84 1.5 WNW 39 46 21 25 1013.0 1013.0 -
25/03:00pm 15.0 8.0 12.5 85 1.4 NW 41 48 22 26 1013.0 1013.0 -
25/02:30pm 14.5 7.9 12.5 88 1.1 NW 39 48 21 26 1013.3 1013.3 -
25/02:00pm 14.9 8.4 12.9 88 1.1 WNW 39 48 21 26 1013.7 1013.7 -
25/01:30pm 14.7 7.9 13.1 90 0.9 WNW 41 46 22 25 1013.8 1013.8 -
25/01:00pm 14.4 9.1 13.1 92 0.7 WNW 33 41 18 22 1014.1 1014.1 -
25/12:30pm 13.3 5.7 11.9 91 0.7 WNW 43 56 23 30 1014.8 1014.8 -
25/12:19pm 14.4 10.0 13.0 91 0.8 NW 28 46 15 25 1014.8 1014.8 -
25/12:00pm 14.4 9.3 13.0 91 0.8 WNW 32 37 17 20 1015.0 1015.0 -
25/11:30am 13.8 8.9 12.5 92 0.7 W 30 35 16 19 1015.4 1015.4 -
25/11:00am 13.9 9.3 12.3 90 0.9 WNW 28 33 15 18 1015.9 1015.9 -
25/10:41am 14.0 10.5 12.2 89 1.0 WNW 22 39 12 21 1016.1 1016.1 -
25/10:30am 13.5 10.8 11.7 89 1.0 WSW 17 20 9 11 1016.0 1016.0 -
25/10:00am 13.6 8.0 11.5 87 1.1 WNW 32 44 17 24 1016.2 1016.2 -
25/09:56am 13.7 9.3 11.6 87 1.1 W 26 44 14 24 1016.2 1016.2 -
25/09:30am 13.7 11.0 11.6 87 1.1 WSW 17 22 9 12 1016.1 1016.1 -
25/09:00am 13.9 10.6 11.6 86 1.2 W 20 24 11 13 1016.2 1016.2 -
25/08:30am 13.5 9.3 11.2 86 1.2 W 24 30 13 16 1016.0 1016.0 -
25/08:00am 13.4 8.4 11.1 86 1.2 W 28 32 15 17 1016.0 1016.0 -
25/07:30am 13.1 7.3 10.8 86 1.2 W 32 35 17 19 1015.7 1015.7 -
25/07:00am 13.2 7.4 10.9 86 1.2 W 32 37 17 20 1015.7 1015.7 -
25/06:30am 13.4 7.7 11.1 86 1.2 W 32 35 17 19 1015.4 1015.4 -
25/06:00am 13.3 7.6 11.0 86 1.2 W 32 35 17 19 1015.2 1015.2 -
25/05:30am 12.9 8.1 10.4 85 1.3 W 26 30 14 16 1015.0 1015.0 -
25/05:00am 12.8 8.3 10.0 83 1.4 W 24 30 13 16 1015.0 1015.0 -
25/04:30am 12.9 7.9 9.7 81 1.6 W 26 30 14 16 1015.0 1015.0 -
25/04:00am 13.0 7.7 9.8 81 1.6 W 28 33 15 18 1014.9 1014.9 -
25/03:30am 13.0 7.3 9.8 81 1.6 W 30 37 16 20 1014.9 1014.9 -
25/03:00am 13.1 6.9 9.9 81 1.6 W 33 37 18 20 1014.8 1014.8 -
25/02:30am 13.1 6.9 9.5 79 1.8 W 32 39 17 21 1014.7 1014.7 -
25/02:00am 13.0 6.8 9.4 79 1.8 W 32 37 17 20 1014.6 1014.6 -
25/01:30am 12.9 7.5 9.4 79 1.8 WSW 28 33 15 18 1014.7 1014.7 -
25/01:00am 13.0 6.8 9.3 78 1.9 W 32 37 17 20 1014.8 1014.8 -
25/12:30am 13.1 6.3 9.4 78 1.9 W 35 41 19 22 1014.9 1014.9 -
25/12:00am 13.3 6.5 9.2 76 2.1 W 35 41 19 22 1015.0 1015.0 -
 
Date/Time
EST
Temp
°C
App
Temp
°C
Dew
Point
°C
Rel
Hum
%
Delta-T
°C
Wind Press
QNH
hPa
Press
MSL
hPa
Rain since
9am
mm
Dir  Spd
km/h
Gust
km/h
Spd
kts
Gust
kts
24/11:30pm 13.4 7.0 9.5 77 2.0 W 33 39 18 21 1015.0 1015.0 -
24/11:00pm 13.3 7.1 9.4 77 2.0 W 32 39 17 21 1014.9 1014.9 -
24/10:30pm 13.3 6.9 9.2 76 2.1 W 33 41 18 22 1015.0 1015.0 -
24/10:00pm 13.2 7.3 8.9 75 2.2 W 30 35 16 19 1015.2 1015.2 -
24/09:30pm 13.2 7.2 8.5 73 2.3 W 30 33 16 18 1015.1 1015.1 -
24/09:00pm 13.3 6.9 8.4 72 2.4 W 32 37 17 20 1014.9 1014.9 -
24/08:30pm 13.2 8.3 8.5 73 2.3 WSW 24 32 13 17 1014.6 1014.6 -
24/08:00pm 13.1 7.4 8.4 73 2.3 WSW 28 33 15 18 1014.4 1014.4 -
24/07:30pm 13.3 6.7 8.4 72 2.4 W 33 41 18 22 1013.9 1013.9 -
24/07:00pm 13.3 5.1 8.2 71 2.5 WSW 41 48 22 26 1013.6 1013.6 -
24/06:30pm 13.4 5.7 8.7 73 2.4 W 39 44 21 24 1013.2 1013.2 -
24/06:00pm 13.5 5.3 8.4 71 2.5 WSW 41 52 22 28 1012.6 1012.6 -
24/05:30pm 13.7 5.1 9.0 73 2.4 W 44 50 24 27 1012.1 1012.1 -
24/05:00pm 13.7 7.1 7.9 68 2.9 WSW 32 41 17 22 1011.6 1011.6 -
24/04:30pm 14.1 7.4 8.3 68 2.9 W 33 41 18 22 1011.2 1011.2 -
24/04:00pm 14.3 6.9 8.5 68 2.9 W 37 43 20 23 1010.8 1010.8 -
24/03:30pm 14.5 7.1 8.2 66 3.2 W 37 44 20 24 1010.2 1010.2 -
24/03:00pm 14.5 6.9 9.1 70 2.8 W 39 48 21 26 1009.7 1009.7 -
24/02:30pm 14.4 5.9 8.4 67 3.0 W 43 52 23 28 1009.4 1009.4 -
24/02:00pm 14.1 5.3 8.1 67 3.0 WSW 44 54 24 29 1009.2 1009.2 -
24/01:30pm 14.6 7.4 9.0 69 2.8 W 37 43 20 23 1009.1 1009.1 -
24/01:00pm 14.6 6.8 8.3 66 3.2 W 39 46 21 25 1009.1 1009.1 -
24/12:30pm 14.3 7.6 8.0 66 3.1 W 33 41 18 22 1009.2 1009.2 -

Other Formats:

Comma delimited format used in spreadsheet applications
http://www.bom.gov.au/fwo/IDT60801/IDT60801.95964.axf

JavaScript Object Notation format (JSON) in row-major order
http://www.bom.gov.au/fwo/IDT60801/IDT60801.95964.json